Stella Polaris — PEBD — position and weather

sailwx.info

Track history (hours):
 
Tides and Currents Weather Stations Pressure Air Temp Water Temp Dewpoint Dewpoint Depression Visibility Wind Speed Wind Dir Waves Ship Positions

Stella Polaris

Last reported at 2016-May-26 03:27 UTC. Time now 2016-May-31 14:18 UTC.
Position N 49°52' W 004°33'.

Length 117 m; draft 7.7 m.

Type: Ship (hazmat cat A). MMSI: 245911000.

Date/timePositionNaut miles runAvg speedWind from/ knotsBaromVisibWave heightAir tempDewpointWater temp
2016-May-26 03:27N 49°52' W 004°33'1314.1
2016-May-26 02:33N 49°54' W 004°14'2814.1
2016-May-26 00:33N 49°57' W 003°30'1313.2
2016-May-25 23:33N 49°59' W 003°10'1212.2
2016-May-25 22:33N 50°01' W 002°51'9713.5
2016-May-25 15:22N 50°25' W 000°24'1614.5
2016-May-25 14:15N 50°30' E 000°01'1013.7
2016-May-25 13:33N 50°32' E 000°15'5213.1
2016-May-25 09:34N 50°60' E 001°25'1616.4
2016-May-25 08:33N 51°12' E 001°44'1514.6
2016-May-25 07:33N 51°23' E 001°58'1211.5
2016-May-25 06:33N 51°20' E 002°16'1312.5
2016-May-25 05:29N 51°23' E 002°37'1111.4
2016-May-25 04:33N 51°23' E 002°54'1111.0
2016-May-25 03:34N 51°24' E 003°11'1110.7
2016-May-25 02:34N 51°25' E 003°28'8 8.4
2016-May-25 01:34N 51°26' E 003°42'8 7.6
2016-May-25 00:33N 51°20' E 003°49'1 0.6
2016-May-24 23:34N 51°19' E 003°50'1 1.5
2016-May-24 22:34N 51°18' E 003°50'5 5.4
2016-May-24 21:33N 51°12' E 003°48'0 0.0
2016-May-24 20:32N 51°12' E 003°48'0 0.0
2016-May-24 19:32N 51°12' E 003°48'0 0.0
2016-May-24 18:32N 51°12' E 003°48'0 0.0
2016-May-24 17:29N 51°12' E 003°48'0 0.0
2016-May-24 16:32N 51°12' E 003°48'0 0.0
2016-May-24 15:29N 51°12' E 003°48'0 0.0
2016-May-24 14:32N 51°12' E 003°48'0 0.0
2016-May-24 13:32N 51°12' E 003°48'0 0.0
2016-May-24 12:32N 51°12' E 003°48'0 0.0
2016-May-24 11:32N 51°12' E 003°48'0 0.0
2016-May-24 10:29N 51°12' E 003°48'0 0.0
2016-May-24 09:32N 51°12' E 003°48'0 0.0
2016-May-24 08:32N 51°12' E 003°48'0 0.0
2016-May-24 07:32N 51°12' E 003°48'0 0.0
2016-May-24 06:32N 51°12' E 003°48'0 0.0
2016-May-24 05:32N 51°12' E 003°48'0 0.0
2016-May-24 04:32N 51°12' E 003°48'0 0.0
2016-May-24 03:32N 51°12' E 003°48'0 0.0
2016-May-24 02:32N 51°12' E 003°48'0 0.0
2016-May-24 01:32N 51°12' E 003°48'0 0.0
2016-May-24 00:32N 51°12' E 003°48'0 0.0
2016-May-23 23:32N 51°12' E 003°48'0 0.0
2016-May-23 22:32N 51°12' E 003°48'0 0.0
2016-May-23 21:33N 51°12' E 003°48'0 0.0
2016-May-23 20:33N 51°12' E 003°48'0 0.0
2016-May-23 19:33N 51°12' E 003°48'0 0.0
2016-May-23 18:30N 51°12' E 003°48'0 0.0
2016-May-23 17:33N 51°12' E 003°48'0 0.0
2016-May-23 16:33N 51°12' E 003°48'0 0.0
2016-May-23 15:33N 51°12' E 003°48'0 0.0
2016-May-23 14:33N 51°12' E 003°48'0 0.0
2016-May-23 13:30N 51°12' E 003°48'0 0.0
2016-May-23 12:33N 51°12' E 003°48'0 0.0
2016-May-23 11:33N 51°12' E 003°48'0 0.0
2016-May-23 10:33N 51°12' E 003°48'0 0.0
2016-May-23 09:33N 51°12' E 003°48'0 0.0
2016-May-23 08:32N 51°12' E 003°48'0 0.0
2016-May-23 07:32N 51°12' E 003°48'0 0.0
2016-May-23 06:33N 51°12' E 003°48'0 0.0
2016-May-23 05:33N 51°12' E 003°48'0 0.0
2016-May-23 04:33N 51°12' E 003°48'0 0.0
2016-May-23 03:33N 51°12' E 003°48'0 0.0
2016-May-23 02:33N 51°12' E 003°48'0 0.0
2016-May-23 01:33N 51°12' E 003°48'0 0.0
2016-May-23 00:33N 51°12' E 003°48'0 0.0
2016-May-22 23:33N 51°12' E 003°48'0 0.0
2016-May-22 22:33N 51°12' E 003°48'0 0.0
2016-May-22 21:33N 51°12' E 003°48'0 0.0
2016-May-22 20:33N 51°12' E 003°48'0 0.0
2016-May-22 19:33N 51°12' E 003°48'1 1.1
2016-May-22 18:33N 51°13' E 003°48'6 6.3
2016-May-22 17:33N 51°20' E 003°49'3 3.4
2016-May-22 16:33N 51°22' E 003°45'9 9.0
2016-May-22 15:33N 51°25' E 003°32'1111.4
2016-May-22 14:33N 51°24' E 003°13'1111.1
2016-May-22 13:32N 51°22' E 002°55'1111.2
2016-May-22 12:31N 51°22' E 002°37'4 0.7
2016-May-22 07:21N 51°22' E 002°31'1012.4
2016-May-22 06:33N 51°18' E 002°17'1313.2
2016-May-22 05:33N 51°11' E 001°59'1313.3
2016-May-22 04:33N 51°03' E 001°42'7213.7
2016-May-21 23:18N 50°22' E 000°09'1115.0
2016-May-21 22:33N 50°19' W 000°08'10616.6
2016-May-21 16:11N 49°51' W 002°47'3713.8
2016-May-21 13:32N 49°47' W 003°43'  
Track history (hours):
 
Tides and Currents Weather Stations Pressure Air Temp Water Temp Dewpoint Dewpoint Depression Visibility Wind Speed Wind Dir Waves Ship Positions

Stella Polaris

Last reported at 2016-May-26 03:27 UTC. Time now 2016-May-31 14:18 UTC.
Position N 49°52' W 004°33'.

Length 117 m; draft 7.7 m.

Type: Ship (hazmat cat A). MMSI: 245911000.

Date/timePositionNaut miles runAvg speedWind from/ knotsBaromVisibWave heightAir tempDewpointWater temp
2016-May-26 03:27N 49°52' W 004°33'1314.1
2016-May-26 02:33N 49°54' W 004°14'2814.1
2016-May-26 00:33N 49°57' W 003°30'1313.2
2016-May-25 23:33N 49°59' W 003°10'1212.2
2016-May-25 22:33N 50°01' W 002°51'9713.5
2016-May-25 15:22N 50°25' W 000°24'1614.5
2016-May-25 14:15N 50°30' E 000°01'1013.7
2016-May-25 13:33N 50°32' E 000°15'5213.1
2016-May-25 09:34N 50°60' E 001°25'1616.4
2016-May-25 08:33N 51°12' E 001°44'1514.6
2016-May-25 07:33N 51°23' E 001°58'1211.5
2016-May-25 06:33N 51°20' E 002°16'1312.5
2016-May-25 05:29N 51°23' E 002°37'1111.4
2016-May-25 04:33N 51°23' E 002°54'1111.0
2016-May-25 03:34N 51°24' E 003°11'1110.7
2016-May-25 02:34N 51°25' E 003°28'8 8.4
2016-May-25 01:34N 51°26' E 003°42'8 7.6
2016-May-25 00:33N 51°20' E 003°49'1 0.6
2016-May-24 23:34N 51°19' E 003°50'1 1.5
2016-May-24 22:34N 51°18' E 003°50'5 5.4
2016-May-24 21:33N 51°12' E 003°48'0 0.0
2016-May-24 20:32N 51°12' E 003°48'0 0.0
2016-May-24 19:32N 51°12' E 003°48'0 0.0
2016-May-24 18:32N 51°12' E 003°48'0 0.0
2016-May-24 17:29N 51°12' E 003°48'0 0.0
2016-May-24 16:32N 51°12' E 003°48'0 0.0
2016-May-24 15:29N 51°12' E 003°48'0 0.0
2016-May-24 14:32N 51°12' E 003°48'0 0.0
2016-May-24 13:32N 51°12' E 003°48'0 0.0
2016-May-24 12:32N 51°12' E 003°48'0 0.0
2016-May-24 11:32N 51°12' E 003°48'0 0.0
2016-May-24 10:29N 51°12' E 003°48'0 0.0
2016-May-24 09:32N 51°12' E 003°48'0 0.0
2016-May-24 08:32N 51°12' E 003°48'0 0.0
2016-May-24 07:32N 51°12' E 003°48'0 0.0
2016-May-24 06:32N 51°12' E 003°48'0 0.0
2016-May-24 05:32N 51°12' E 003°48'0 0.0
2016-May-24 04:32N 51°12' E 003°48'0 0.0
2016-May-24 03:32N 51°12' E 003°48'0 0.0
2016-May-24 02:32N 51°12' E 003°48'0 0.0
2016-May-24 01:32N 51°12' E 003°48'0 0.0
2016-May-24 00:32N 51°12' E 003°48'0 0.0
2016-May-23 23:32N 51°12' E 003°48'0 0.0
2016-May-23 22:32N 51°12' E 003°48'0 0.0
2016-May-23 21:33N 51°12' E 003°48'0 0.0
2016-May-23 20:33N 51°12' E 003°48'0 0.0
2016-May-23 19:33N 51°12' E 003°48'0 0.0
2016-May-23 18:30N 51°12' E 003°48'0 0.0
2016-May-23 17:33N 51°12' E 003°48'0 0.0
2016-May-23 16:33N 51°12' E 003°48'0 0.0
2016-May-23 15:33N 51°12' E 003°48'0 0.0
2016-May-23 14:33N 51°12' E 003°48'0 0.0
2016-May-23 13:30N 51°12' E 003°48'0 0.0
2016-May-23 12:33N 51°12' E 003°48'0 0.0
2016-May-23 11:33N 51°12' E 003°48'0 0.0
2016-May-23 10:33N 51°12' E 003°48'0 0.0
2016-May-23 09:33N 51°12' E 003°48'0 0.0
2016-May-23 08:32N 51°12' E 003°48'0 0.0
2016-May-23 07:32N 51°12' E 003°48'0 0.0
2016-May-23 06:33N 51°12' E 003°48'0 0.0
2016-May-23 05:33N 51°12' E 003°48'0 0.0
2016-May-23 04:33N 51°12' E 003°48'0 0.0
2016-May-23 03:33N 51°12' E 003°48'0 0.0
2016-May-23 02:33N 51°12' E 003°48'0 0.0
2016-May-23 01:33N 51°12' E 003°48'0 0.0
2016-May-23 00:33N 51°12' E 003°48'0 0.0
2016-May-22 23:33N 51°12' E 003°48'0 0.0
2016-May-22 22:33N 51°12' E 003°48'0 0.0
2016-May-22 21:33N 51°12' E 003°48'0 0.0
2016-May-22 20:33N 51°12' E 003°48'0 0.0
2016-May-22 19:33N 51°12' E 003°48'1 1.1
2016-May-22 18:33N 51°13' E 003°48'6 6.3
2016-May-22 17:33N 51°20' E 003°49'3 3.4
2016-May-22 16:33N 51°22' E 003°45'9 9.0
2016-May-22 15:33N 51°25' E 003°32'1111.4
2016-May-22 14:33N 51°24' E 003°13'1111.1
2016-May-22 13:32N 51°22' E 002°55'1111.2
2016-May-22 12:31N 51°22' E 002°37'4 0.7
2016-May-22 07:21N 51°22' E 002°31'1012.4
2016-May-22 06:33N 51°18' E 002°17'1313.2
2016-May-22 05:33N 51°11' E 001°59'1313.3
2016-May-22 04:33N 51°03' E 001°42'7213.7
2016-May-21 23:18N 50°22' E 000°09'1115.0
2016-May-21 22:33N 50°19' W 000°08'10616.6
2016-May-21 16:11N 49°51' W 002°47'3713.8
2016-May-21 13:32N 49°47' W 003°43'  

Dump ship's entire track history